createdAt,value
2022-12-11T00:00:43.893Z,190.80
2022-12-11T00:01:43.862Z,140.40
2022-12-11T00:02:43.909Z,187.80
2022-12-11T00:03:43.821Z,99.30
2022-12-11T00:04:43.985Z,98.60
2022-12-11T00:05:43.784Z,143.00
2022-12-11T00:06:43.796Z,105.30
2022-12-11T00:07:44.342Z,191.70
2022-12-11T00:08:43.787Z,120.80
2022-12-11T00:09:43.723Z,115.00
2022-12-11T00:10:43.748Z,218.80
2022-12-11T00:11:43.704Z,195.80
2022-12-11T00:12:43.715Z,228.40
2022-12-11T00:13:43.726Z,263.40
2022-12-11T00:14:43.790Z,253.80
2022-12-11T00:15:43.678Z,175.00
2022-12-11T00:16:43.708Z,194.10
2022-12-11T00:17:43.634Z,203.20
2022-12-11T00:18:43.678Z,195.30
2022-12-11T00:19:43.607Z,180.10
2022-12-11T00:20:43.619Z,200.20
2022-12-11T00:21:43.634Z,185.70
2022-12-11T00:22:43.563Z,142.60
2022-12-11T00:23:43.621Z,157.60
2022-12-11T00:24:43.542Z,163.60
2022-12-11T00:25:43.551Z,157.30
2022-12-11T00:26:43.599Z,154.00
2022-12-11T00:27:43.537Z,123.10
2022-12-11T00:28:43.498Z,161.70
2022-12-11T00:29:43.539Z,113.60
2022-12-11T00:30:43.496Z,163.90
2022-12-11T00:31:43.526Z,142.80
2022-12-11T00:32:43.443Z,171.50
2022-12-11T00:33:43.457Z,153.10
2022-12-11T00:34:43.521Z,156.30
2022-12-11T00:35:43.448Z,223.80
2022-12-11T00:36:43.406Z,173.50
2022-12-11T00:37:43.412Z,198.50
2022-12-11T00:38:43.412Z,167.30
2022-12-11T00:39:43.454Z,149.00
2022-12-11T00:40:43.345Z,166.10
2022-12-11T00:41:49.872Z,174.60
2022-12-11T00:42:43.315Z,190.50
2022-12-11T00:43:43.338Z,197.00
2022-12-11T00:44:43.291Z,198.40
2022-12-11T00:45:43.363Z,227.20
2022-12-11T00:46:43.268Z,144.30
2022-12-11T00:47:43.305Z,208.60
2022-12-11T00:48:43.249Z,198.50
2022-12-11T00:49:48.155Z,200.20
2022-12-11T00:50:43.248Z,166.10
2022-12-11T00:51:43.232Z,222.60
2022-12-11T00:52:43.199Z,235.20
2022-12-11T00:53:43.201Z,195.00
2022-12-11T00:54:43.158Z,204.20
2022-12-11T00:55:43.221Z,253.80
2022-12-11T00:56:43.142Z,306.50
2022-12-11T00:57:43.201Z,215.00
2022-12-11T00:58:43.123Z,222.20
2022-12-11T00:59:43.121Z,182.80
2022-12-11T01:00:43.083Z,212.40
2022-12-11T01:01:43.157Z,203.90
2022-12-11T01:02:43.086Z,214.80
2022-12-11T01:03:43.082Z,245.90
2022-12-11T01:04:43.041Z,225.40
2022-12-11T01:05:43.049Z,176.50
2022-12-11T01:06:43.039Z,176.60
2022-12-11T01:07:43.043Z,207.90
2022-12-11T01:08:42.984Z,196.90
2022-12-11T01:09:43.002Z,226.60
2022-12-11T01:10:43.008Z,181.30
2022-12-11T01:11:43.001Z,152.40
2022-12-11T01:12:42.942Z,154.10
2022-12-11T01:13:42.947Z,160.30
2022-12-11T01:14:42.912Z,183.00
2022-12-11T01:15:42.921Z,143.80
2022-12-11T01:16:42.957Z,147.80
2022-12-11T01:17:42.896Z,188.00
2022-12-11T01:18:42.868Z,148.70
2022-12-11T01:19:42.879Z,210.10
2022-12-11T01:20:42.847Z,173.10
2022-12-11T01:21:42.849Z,138.50
2022-12-11T01:22:42.840Z,184.50
2022-12-11T01:23:42.827Z,143.80
2022-12-11T01:24:42.788Z,156.80
2022-12-11T01:25:42.798Z,157.20
2022-12-11T01:26:42.771Z,153.40
2022-12-11T01:27:42.822Z,164.40
2022-12-11T01:28:42.746Z,157.10
2022-12-11T01:29:42.759Z,135.60
2022-12-11T01:30:42.735Z,192.90
2022-12-11T01:31:42.722Z,195.00
2022-12-11T01:32:42.723Z,169.80
2022-12-11T01:33:42.694Z,129.40
2022-12-11T01:34:42.665Z,136.80
2022-12-11T01:35:42.677Z,172.10
2022-12-11T01:36:42.637Z,114.90
2022-12-11T01:37:42.651Z,125.40
2022-12-11T01:38:42.644Z,112.50
2022-12-11T01:39:42.622Z,169.90
2022-12-11T01:40:42.589Z,126.30
2022-12-11T01:41:42.600Z,130.10
2022-12-11T01:42:42.563Z,115.40
2022-12-11T01:43:42.609Z,146.30
2022-12-11T01:44:42.534Z,133.20
2022-12-11T01:45:42.568Z,128.20
2022-12-11T01:46:42.517Z,119.70
2022-12-11T01:47:42.531Z,130.00
2022-12-11T01:48:42.563Z,183.70
2022-12-11T01:49:42.495Z,147.70
2022-12-11T01:50:42.469Z,104.20
2022-12-11T01:51:42.477Z,145.00
2022-12-11T01:52:42.444Z,151.40
2022-12-11T01:53:42.488Z,185.30
2022-12-11T01:54:42.421Z,136.30
2022-12-11T01:55:42.423Z,147.30
2022-12-11T01:56:42.388Z,103.20
2022-12-11T01:57:42.398Z,153.00
2022-12-11T01:58:42.398Z,140.40
2022-12-11T01:59:42.377Z,141.40
2022-12-11T02:00:42.339Z,147.20
2022-12-11T02:01:42.504Z,143.10
2022-12-11T02:02:42.457Z,165.20
2022-12-11T02:03:42.302Z,134.20
2022-12-11T02:04:42.337Z,132.20
2022-12-11T02:05:42.272Z,106.60
2022-12-11T02:06:42.293Z,109.40
2022-12-11T02:07:42.265Z,140.80
2022-12-11T02:08:42.272Z,141.00
2022-12-11T02:09:42.253Z,143.60
2022-12-11T02:10:42.244Z,126.60
2022-12-11T02:11:42.202Z,127.40
2022-12-11T02:12:42.217Z,134.60
2022-12-11T02:13:42.178Z,145.70
2022-12-11T02:14:42.232Z,134.70
2022-12-11T02:15:42.161Z,132.40
2022-12-11T02:16:42.239Z,180.80
2022-12-11T02:17:42.144Z,136.90
2022-12-11T02:18:42.155Z,158.90
2022-12-11T02:19:42.098Z,122.90
2022-12-11T02:20:42.143Z,156.30
2022-12-11T02:21:42.074Z,138.60
2022-12-11T02:22:42.094Z,126.80
2022-12-11T02:23:42.057Z,120.30
2022-12-11T02:24:42.067Z,147.20
2022-12-11T02:25:42.231Z,90.50
2022-12-11T02:26:42.047Z,108.20
2022-12-11T02:27:42.026Z,137.00
2022-12-11T02:28:42.019Z,113.30
2022-12-11T02:29:41.975Z,122.30
2022-12-11T02:30:42.038Z,102.40
2022-12-11T02:31:42.000Z,121.50
2022-12-11T02:32:41.971Z,138.20
2022-12-11T02:33:41.932Z,130.10
2022-12-11T02:34:41.951Z,116.00
2022-12-11T02:35:41.905Z,136.10
2022-12-11T02:36:42.047Z,130.90
2022-12-11T02:37:41.915Z,144.80
2022-12-11T02:38:41.899Z,124.80
2022-12-11T02:39:41.856Z,114.20
2022-12-11T02:40:41.905Z,146.10
2022-12-11T02:41:41.903Z,124.90
2022-12-11T02:42:41.854Z,81.70
2022-12-11T02:43:41.809Z,111.60
2022-12-11T02:44:41.821Z,84.20
2022-12-11T02:45:41.815Z,110.30
2022-12-11T02:46:41.816Z,124.50
2022-12-11T02:47:41.773Z,93.30
2022-12-11T02:48:41.763Z,113.10
2022-12-11T02:49:41.730Z,119.30
2022-12-11T02:50:41.733Z,77.40
2022-12-11T02:51:41.727Z,73.20
2022-12-11T02:52:41.708Z,91.50
2022-12-11T02:53:41.675Z,86.80
2022-12-11T02:54:41.697Z,84.00
2022-12-11T02:55:41.654Z,82.60
2022-12-11T02:56:41.699Z,69.40
2022-12-11T02:57:41.633Z,62.30
2022-12-11T02:58:41.641Z,73.40
2022-12-11T02:59:41.619Z,72.90
2022-12-11T03:00:41.613Z,95.30
2022-12-11T03:01:41.615Z,89.80
2022-12-11T03:02:41.641Z,91.80
2022-12-11T03:03:41.560Z,94.60
2022-12-11T03:04:41.560Z,67.70
2022-12-11T03:05:41.534Z,74.50
2022-12-11T03:06:41.540Z,104.20
2022-12-11T03:07:41.534Z,74.90
2022-12-11T03:08:41.519Z,82.90
2022-12-11T03:09:41.481Z,93.70
2022-12-11T03:10:41.493Z,130.80
2022-12-11T03:11:41.459Z,78.40
2022-12-11T03:12:41.494Z,103.90
2022-12-11T03:13:41.433Z,86.20
2022-12-11T03:14:41.441Z,84.40
2022-12-11T03:15:41.400Z,113.40
2022-12-11T03:16:41.475Z,106.30
2022-12-11T03:17:41.417Z,80.50
2022-12-11T03:18:41.414Z,117.40
2022-12-11T03:19:41.360Z,111.60
2022-12-11T03:20:41.363Z,107.80
2022-12-11T03:21:41.329Z,90.30
2022-12-11T03:22:41.366Z,78.50
2022-12-11T03:23:41.336Z,78.40
2022-12-11T03:24:41.312Z,103.20
2022-12-11T03:25:41.279Z,106.70
2022-12-11T03:26:41.294Z,88.60
2022-12-11T03:27:41.252Z,81.10
2022-12-11T03:28:41.304Z,80.20
2022-12-11T03:29:41.241Z,70.70
2022-12-11T03:30:41.264Z,92.10
2022-12-11T03:31:41.204Z,72.00
2022-12-11T03:32:41.231Z,64.40
2022-12-11T03:33:41.563Z,74.30
2022-12-11T03:34:41.189Z,68.20
2022-12-11T03:35:41.166Z,92.10
2022-12-11T03:36:41.173Z,80.20
2022-12-11T03:37:41.173Z,69.50
2022-12-11T03:38:41.138Z,71.80
2022-12-11T03:39:41.124Z,71.50
2022-12-11T03:40:41.122Z,100.20
2022-12-11T03:41:41.097Z,65.10
2022-12-11T03:42:41.090Z,87.50
2022-12-11T03:43:41.052Z,65.40
2022-12-11T03:44:41.116Z,71.50
2022-12-11T03:45:41.029Z,71.10
2022-12-11T03:46:41.033Z,77.30
2022-12-11T03:47:41.098Z,65.90
2022-12-11T03:48:41.009Z,61.20
2022-12-11T03:49:41.012Z,78.40
2022-12-11T03:50:40.985Z,57.60
2022-12-11T03:51:40.961Z,62.60
2022-12-11T03:52:45.606Z,57.30
2022-12-11T03:53:40.933Z,60.80
2022-12-11T03:54:40.941Z,52.70
2022-12-11T03:55:40.940Z,60.00
2022-12-11T03:56:40.911Z,83.30
2022-12-11T03:57:40.892Z,88.50
2022-12-11T03:58:40.898Z,91.60
2022-12-11T03:59:40.848Z,101.10
2022-12-11T04:00:40.917Z,88.20
2022-12-11T04:01:40.874Z,72.00
2022-12-11T04:02:40.841Z,82.90
2022-12-11T04:03:40.812Z,72.10
2022-12-11T04:04:40.880Z,67.60
2022-12-11T04:05:40.808Z,64.90
2022-12-11T04:06:40.785Z,68.80
2022-12-11T04:07:40.747Z,52.20
2022-12-11T04:08:40.759Z,55.60
2022-12-11T04:09:40.731Z,59.50
2022-12-11T04:10:40.787Z,68.70
2022-12-11T04:11:40.701Z,72.80
2022-12-11T04:12:40.714Z,64.80
2022-12-11T04:13:40.670Z,69.80
2022-12-11T04:14:40.683Z,77.60
2022-12-11T04:15:40.738Z,56.90
2022-12-11T04:16:40.691Z,58.60
2022-12-11T04:17:40.623Z,54.60
2022-12-11T04:18:40.640Z,53.20
2022-12-11T04:19:40.612Z,50.70
2022-12-11T04:20:40.630Z,51.30
2022-12-11T04:21:40.623Z,58.00
2022-12-11T04:22:40.599Z,56.40
2022-12-11T04:23:40.553Z,61.10
2022-12-11T04:24:40.579Z,53.00
2022-12-11T04:25:40.522Z,56.60
2022-12-11T04:26:40.573Z,58.30
2022-12-11T04:27:40.519Z,53.80
2022-12-11T04:28:40.510Z,62.80
2022-12-11T04:29:40.478Z,57.50
2022-12-11T04:30:40.500Z,54.60
2022-12-11T04:31:40.464Z,58.40
2022-12-11T04:32:40.502Z,59.10
2022-12-11T04:33:40.445Z,62.00
2022-12-11T04:34:40.446Z,66.50
2022-12-11T04:35:40.397Z,65.50
2022-12-11T04:36:40.421Z,64.60
2022-12-11T04:37:40.398Z,62.00
2022-12-11T04:38:40.380Z,58.50
2022-12-11T04:39:40.368Z,74.50
2022-12-11T04:40:40.362Z,66.70
2022-12-11T04:41:40.315Z,80.40
2022-12-11T04:42:40.389Z,75.00
2022-12-11T04:43:40.301Z,67.70
2022-12-11T04:44:40.304Z,59.30
2022-12-11T04:45:40.273Z,58.80
2022-12-11T04:46:40.409Z,78.80
2022-12-11T04:47:40.246Z,59.80
2022-12-11T04:48:40.298Z,78.30
2022-12-11T04:49:40.222Z,120.60
2022-12-11T04:50:40.229Z,89.40
2022-12-11T04:51:40.201Z,102.70
2022-12-11T04:52:40.215Z,66.80
2022-12-11T04:53:40.257Z,67.20
2022-12-11T04:54:40.200Z,66.90
2022-12-11T04:55:40.156Z,67.00
2022-12-11T04:56:40.154Z,99.00
2022-12-11T04:57:40.130Z,97.00
2022-12-11T04:58:40.160Z,77.60
2022-12-11T04:59:40.114Z,65.30
2022-12-11T05:00:40.095Z,73.80
2022-12-11T05:01:40.151Z,100.50
2022-12-11T05:02:40.062Z,91.70
2022-12-11T05:03:40.066Z,66.60
2022-12-11T05:04:40.077Z,70.00
2022-12-11T05:05:40.051Z,72.40
2022-12-11T05:06:40.011Z,74.40
2022-12-11T05:07:40.012Z,70.30
2022-12-11T05:08:39.987Z,68.30
2022-12-11T05:09:40.012Z,83.50
2022-12-11T05:10:39.954Z,70.30
2022-12-11T05:11:39.980Z,80.60
2022-12-11T05:12:39.934Z,82.20
2022-12-11T05:13:39.944Z,66.20
2022-12-11T05:14:39.960Z,97.40
2022-12-11T05:15:39.998Z,141.30
2022-12-11T05:16:39.878Z,103.20
2022-12-11T05:17:40.015Z,115.90
2022-12-11T05:18:39.854Z,87.90
2022-12-11T05:19:39.866Z,71.80
2022-12-11T05:20:39.966Z,63.90
2022-12-11T05:21:39.856Z,61.80
2022-12-11T05:22:39.805Z,63.70
2022-12-11T05:23:39.820Z,67.20
2022-12-11T05:24:39.789Z,57.60
2022-12-11T05:25:39.835Z,64.40
2022-12-11T05:26:39.770Z,65.60
2022-12-11T05:27:39.769Z,65.30
2022-12-11T05:28:39.725Z,59.80
2022-12-11T05:29:39.749Z,56.60
2022-12-11T05:30:39.738Z,63.00
2022-12-11T05:31:39.735Z,65.40
2022-12-11T05:32:39.685Z,64.20
2022-12-11T05:33:39.688Z,66.80
2022-12-11T05:34:39.655Z,70.70
2022-12-11T05:35:39.675Z,84.40
2022-12-11T05:36:39.686Z,141.50
2022-12-11T05:37:39.643Z,82.20
2022-12-11T05:38:39.603Z,136.40
2022-12-11T05:39:39.618Z,100.10
2022-12-11T05:40:39.573Z,88.30
2022-12-11T05:41:39.622Z,86.50
2022-12-11T05:42:39.575Z,68.30
2022-12-11T05:43:39.587Z,91.00
2022-12-11T05:44:39.535Z,75.60
2022-12-11T05:45:39.540Z,110.80
2022-12-11T05:46:39.579Z,73.90
2022-12-11T05:47:39.512Z,91.60
2022-12-11T05:48:39.487Z,73.70
2022-12-11T05:49:39.506Z,82.00
2022-12-11T05:50:39.452Z,83.10
2022-12-11T05:51:39.514Z,93.70
2022-12-11T05:52:39.423Z,91.30
2022-12-11T05:53:39.446Z,80.20
2022-12-11T05:54:39.425Z,152.90
2022-12-11T05:55:39.419Z,137.50
2022-12-11T05:56:39.378Z,130.30
2022-12-11T05:57:39.416Z,111.10
2022-12-11T05:58:39.359Z,136.40
2022-12-11T05:59:39.372Z,97.00
2022-12-11T06:00:39.328Z,153.40
2022-12-11T06:01:39.394Z,83.90
2022-12-11T06:02:39.471Z,65.30
2022-12-11T06:03:39.317Z,76.60
2022-12-11T06:04:39.292Z,78.40
2022-12-11T06:05:39.324Z,80.60
2022-12-11T06:06:39.263Z,121.70
2022-12-11T06:07:39.327Z,104.20
2022-12-11T06:08:39.237Z,76.70
2022-12-11T06:09:39.254Z,141.10
2022-12-11T06:10:39.209Z,99.50
2022-12-11T06:11:39.234Z,74.90
2022-12-11T06:12:39.216Z,94.90
2022-12-11T06:13:39.222Z,88.60
2022-12-11T06:14:39.162Z,58.30
2022-12-11T06:15:39.227Z,68.00
2022-12-11T06:16:39.168Z,96.60
2022-12-11T06:17:39.145Z,87.50
2022-12-11T06:18:39.135Z,65.20
2022-12-11T06:19:39.118Z,75.60
2022-12-11T06:20:39.080Z,74.70
2022-12-11T06:21:39.099Z,119.80
2022-12-11T06:22:39.056Z,60.70
2022-12-11T06:23:39.137Z,87.50
2022-12-11T06:24:39.037Z,99.80
2022-12-11T06:25:39.066Z,118.70
2022-12-11T06:26:39.018Z,99.90
2022-12-11T06:27:39.020Z,67.40
2022-12-11T06:28:39.008Z,63.50
2022-12-11T06:29:38.996Z,93.40
2022-12-11T06:30:39.673Z,121.00
2022-12-11T06:31:38.993Z,81.30
2022-12-11T06:32:38.936Z,99.00
2022-12-11T06:33:38.948Z,64.10
2022-12-11T06:34:38.934Z,119.60
2022-12-11T06:35:42.303Z,55.30
2022-12-11T06:36:38.886Z,115.30
2022-12-11T06:37:38.885Z,91.50
2022-12-11T06:38:38.854Z,110.20
2022-12-11T06:39:38.892Z,98.80
2022-12-11T06:40:38.841Z,150.20
2022-12-11T06:41:38.842Z,142.90
2022-12-11T06:42:38.810Z,75.70
2022-12-11T06:43:38.812Z,142.80
2022-12-11T06:44:38.863Z,89.60
2022-12-11T06:45:38.825Z,199.30
2022-12-11T06:46:38.706Z,87.40
2022-12-11T06:47:38.728Z,98.30
2022-12-11T06:48:38.685Z,71.30
2022-12-11T06:49:38.742Z,64.20
2022-12-11T06:50:38.704Z,51.80
2022-12-11T06:51:38.667Z,45.80
2022-12-11T06:52:38.650Z,43.50
2022-12-11T06:53:38.645Z,45.70
2022-12-11T06:54:38.613Z,47.20
2022-12-11T06:55:38.646Z,49.10
2022-12-11T06:56:38.574Z,39.60
2022-12-11T06:57:38.590Z,41.70
2022-12-11T06:58:38.559Z,43.70
2022-12-11T06:59:38.568Z,44.30
2022-12-11T07:00:38.588Z,40.50
2022-12-11T07:01:38.538Z,40.40
2022-12-11T07:02:38.594Z,42.60
2022-12-11T07:03:38.516Z,42.20
2022-12-11T07:04:38.480Z,41.00
2022-12-11T07:05:38.526Z,43.20
2022-12-11T07:06:38.452Z,39.20
2022-12-11T07:07:38.463Z,38.20
2022-12-11T07:08:38.428Z,37.80
2022-12-11T07:09:38.457Z,38.20
2022-12-11T07:10:38.414Z,41.50
2022-12-11T07:11:38.439Z,42.10
2022-12-11T07:12:38.385Z,38.00
2022-12-11T07:13:38.386Z,42.70
2022-12-11T07:14:38.366Z,44.20
2022-12-11T07:15:40.484Z,43.70
2022-12-11T07:16:38.395Z,43.90
2022-12-11T07:17:38.348Z,65.70
2022-12-11T07:18:38.306Z,63.10
2022-12-11T07:19:38.311Z,43.00
2022-12-11T07:20:38.283Z,39.60
2022-12-11T07:21:38.335Z,38.80
2022-12-11T07:22:41.710Z,57.80
2022-12-11T07:23:38.271Z,44.80
2022-12-11T07:24:38.238Z,51.60
2022-12-11T07:25:38.235Z,67.10
2022-12-11T07:26:38.198Z,57.90
2022-12-11T07:27:38.246Z,56.90
2022-12-11T07:28:38.179Z,60.90
2022-12-11T07:29:38.196Z,44.40
2022-12-11T07:30:38.157Z,51.70
2022-12-11T07:31:38.263Z,41.00
2022-12-11T07:32:38.208Z,46.20
2022-12-11T07:33:38.134Z,43.10
2022-12-11T07:34:38.106Z,67.10
2022-12-11T07:35:38.122Z,94.20
2022-12-11T07:36:38.084Z,49.00
2022-12-11T07:37:38.089Z,53.30
2022-12-11T07:38:38.138Z,46.30
2022-12-11T07:39:38.122Z,47.10
2022-12-11T07:40:38.030Z,51.00
2022-12-11T07:41:38.035Z,62.40
2022-12-11T07:42:42.820Z,91.40
2022-12-11T07:43:38.050Z,38.40
2022-12-11T07:44:38.005Z,43.00
2022-12-11T07:45:38.158Z,39.10
2022-12-11T07:46:37.979Z,66.90
2022-12-11T07:47:37.966Z,43.60
2022-12-11T07:48:37.954Z,53.90
2022-12-11T07:49:38.006Z,43.00
2022-12-11T07:50:39.905Z,46.90
2022-12-11T07:51:37.932Z,93.50
2022-12-11T07:52:37.884Z,42.20
2022-12-11T07:53:37.909Z,68.30
2022-12-11T07:54:37.908Z,56.00
2022-12-11T07:55:37.861Z,52.80
2022-12-11T07:56:37.833Z,97.30
2022-12-11T07:57:37.868Z,71.40
2022-12-11T07:58:37.817Z,40.10
2022-12-11T07:59:37.863Z,61.00
2022-12-11T08:00:37.790Z,69.60
2022-12-11T08:01:37.913Z,50.70
2022-12-11T08:02:37.865Z,87.80
2022-12-11T08:03:37.766Z,114.90
2022-12-11T08:04:37.731Z,55.70
2022-12-11T08:05:38.003Z,109.10
2022-12-11T08:06:37.712Z,73.00
2022-12-11T08:07:37.728Z,52.20
2022-12-11T08:08:37.677Z,42.30
2022-12-11T08:09:37.705Z,52.60
2022-12-11T08:10:37.701Z,53.40
2022-12-11T08:11:37.675Z,40.80
2022-12-11T08:12:37.621Z,73.40
2022-12-11T08:13:37.640Z,39.80
2022-12-11T08:14:37.627Z,49.80
2022-12-11T08:15:37.610Z,39.10
2022-12-11T08:16:37.674Z,50.70
2022-12-11T08:17:40.173Z,42.90
2022-12-11T08:18:37.557Z,73.50
2022-12-11T08:19:37.571Z,81.80
2022-12-11T08:20:37.530Z,56.60
2022-12-11T08:21:37.566Z,93.80
2022-12-11T08:22:37.499Z,48.90
2022-12-11T08:23:37.523Z,62.10
2022-12-11T08:24:37.487Z,36.20
2022-12-11T08:25:37.488Z,52.70
2022-12-11T08:26:37.499Z,73.60
2022-12-11T08:27:37.468Z,50.60
2022-12-11T08:28:37.430Z,48.70
2022-12-11T08:29:37.435Z,68.30
2022-12-11T08:30:37.462Z,83.20
2022-12-11T08:31:37.422Z,78.60
2022-12-11T08:32:37.402Z,92.70
2022-12-11T08:33:37.387Z,51.30
2022-12-11T08:34:37.365Z,63.50
2022-12-11T08:35:37.371Z,54.50
2022-12-11T08:36:37.324Z,61.00
2022-12-11T08:37:37.377Z,42.80
2022-12-11T08:38:37.303Z,55.00
2022-12-11T08:39:37.321Z,40.90
2022-12-11T08:40:37.267Z,74.80
2022-12-11T08:41:37.294Z,64.70
2022-12-11T08:42:37.251Z,63.90
2022-12-11T08:43:37.293Z,98.60
2022-12-11T08:44:37.232Z,86.20
2022-12-11T08:45:37.239Z,83.20
2022-12-11T08:46:37.217Z,65.70
2022-12-11T08:47:37.206Z,65.70
2022-12-11T08:48:37.239Z,97.50
2022-12-11T08:49:37.188Z,101.40
2022-12-11T08:50:37.157Z,94.00
2022-12-11T08:51:37.181Z,60.70
2022-12-11T08:52:37.125Z,100.90
2022-12-11T08:53:37.134Z,96.30
2022-12-11T08:54:37.124Z,66.10
2022-12-11T08:55:37.120Z,51.60
2022-12-11T08:56:37.093Z,114.40
2022-12-11T08:57:37.090Z,47.20
2022-12-11T08:58:37.074Z,68.60
2022-12-11T08:59:37.103Z,56.40
2022-12-11T09:00:37.025Z,52.60
2022-12-11T09:01:37.095Z,58.20
2022-12-11T09:02:37.026Z,90.50
2022-12-11T09:03:37.014Z,111.00
2022-12-11T09:04:36.976Z,83.80
2022-12-11T09:05:37.009Z,91.50
2022-12-11T09:06:36.949Z,95.90
2022-12-11T09:07:36.998Z,59.30
2022-12-11T09:08:36.939Z,93.30
2022-12-11T09:09:36.944Z,84.80
2022-12-11T09:10:36.933Z,71.20
2022-12-11T09:11:36.920Z,99.40
2022-12-11T09:12:36.890Z,60.70
2022-12-11T09:13:36.882Z,98.50
2022-12-11T09:14:36.852Z,58.90
2022-12-11T09:15:36.891Z,66.00
2022-12-11T09:16:36.878Z,94.40
2022-12-11T09:17:36.814Z,80.50
2022-12-11T09:18:36.830Z,96.60
2022-12-11T09:19:36.800Z,60.10
2022-12-11T09:20:36.801Z,79.50
2022-12-11T09:21:36.798Z,82.10
2022-12-11T09:22:36.791Z,84.20
2022-12-11T09:23:36.734Z,77.10
2022-12-11T09:24:36.757Z,71.00
2022-12-11T09:25:36.734Z,53.90
2022-12-11T09:26:36.746Z,71.60
2022-12-11T09:27:36.720Z,65.90
2022-12-11T09:28:38.182Z,109.90
2022-12-11T09:29:36.659Z,71.20
2022-12-11T09:30:36.740Z,55.50
2022-12-11T09:31:36.673Z,73.40
2022-12-11T09:32:36.707Z,58.50
2022-12-11T09:33:36.624Z,52.50
2022-12-11T09:34:36.628Z,72.10
2022-12-11T09:35:36.596Z,114.20
2022-12-11T09:36:36.602Z,75.70
2022-12-11T09:37:36.567Z,68.90
2022-12-11T09:38:36.610Z,53.80
2022-12-11T09:39:36.537Z,67.60
2022-12-11T09:40:36.547Z,46.60
2022-12-11T09:41:36.550Z,59.90
2022-12-11T09:42:36.534Z,54.20
2022-12-11T09:43:36.508Z,137.20
2022-12-11T09:44:36.541Z,91.50
2022-12-11T09:45:36.468Z,173.90
2022-12-11T09:46:36.539Z,97.00
2022-12-11T09:47:36.441Z,118.00
2022-12-11T09:48:36.447Z,87.90
2022-12-11T09:49:36.419Z,115.60
2022-12-11T09:50:36.506Z,92.00
2022-12-11T09:51:36.394Z,64.50
2022-12-11T09:52:36.401Z,61.50
2022-12-11T09:53:36.375Z,57.50
2022-12-11T09:54:36.376Z,55.70
2022-12-11T09:55:36.343Z,56.80
2022-12-11T09:56:36.392Z,71.40
2022-12-11T09:57:36.321Z,63.50
2022-12-11T09:58:36.335Z,71.50
2022-12-11T09:59:36.297Z,60.30
2022-12-11T10:00:36.311Z,43.40
2022-12-11T10:01:36.328Z,44.40
2022-12-11T10:02:36.375Z,57.10
2022-12-11T10:03:36.238Z,68.80
2022-12-11T10:04:36.265Z,40.00
2022-12-11T10:05:36.227Z,51.90
2022-12-11T10:06:36.253Z,88.20
2022-12-11T10:07:36.195Z,48.30
2022-12-11T10:08:36.232Z,66.30
2022-12-11T10:09:36.157Z,44.30
2022-12-11T10:10:36.170Z,75.50
2022-12-11T10:11:36.138Z,76.00
2022-12-11T10:12:36.185Z,62.60
2022-12-11T10:13:36.116Z,70.70
2022-12-11T10:14:36.182Z,83.60
2022-12-11T10:15:36.131Z,48.90
2022-12-11T10:16:36.112Z,56.00
2022-12-11T10:17:36.055Z,48.50
2022-12-11T10:18:36.103Z,63.40
2022-12-11T10:19:36.057Z,47.20
2022-12-11T10:20:36.046Z,50.90
2022-12-11T10:21:36.009Z,48.50
2022-12-11T10:22:36.048Z,45.90
2022-12-11T10:23:36.010Z,48.40
2022-12-11T10:25:09.457Z,40.10
2022-12-11T10:25:35.977Z,42.90
2022-12-11T10:26:35.992Z,37.90
2022-12-11T10:27:35.933Z,45.70
2022-12-11T10:28:36.006Z,43.70
2022-12-11T10:29:35.926Z,40.90
2022-12-11T10:30:35.920Z,45.80
2022-12-11T10:31:35.948Z,49.70
2022-12-11T10:32:35.892Z,46.90
2022-12-11T10:33:35.862Z,44.90
2022-12-11T10:34:35.934Z,43.80
2022-12-11T10:35:35.880Z,42.20
2022-12-11T10:36:35.858Z,49.60
2022-12-11T10:37:35.859Z,49.70
2022-12-11T10:38:35.844Z,86.70
2022-12-11T10:39:35.787Z,60.40
2022-12-11T10:40:35.837Z,43.90
2022-12-11T10:41:35.770Z,51.20
2022-12-11T10:42:37.246Z,47.60
2022-12-11T10:43:35.734Z,53.90
2022-12-11T10:44:35.748Z,42.70
2022-12-11T10:45:35.710Z,45.40
2022-12-11T10:46:35.783Z,40.20
2022-12-11T10:47:35.690Z,40.00
2022-12-11T10:48:35.689Z,44.60
2022-12-11T10:49:35.659Z,41.90
2022-12-11T10:50:35.698Z,42.90
2022-12-11T10:51:35.633Z,39.30
2022-12-11T10:52:35.682Z,42.30
2022-12-11T10:53:35.629Z,41.80
2022-12-11T10:54:35.622Z,42.30
2022-12-11T10:55:35.585Z,51.40
2022-12-11T10:56:35.684Z,45.20
2022-12-11T10:57:35.554Z,52.60
2022-12-11T10:58:35.593Z,41.20
2022-12-11T10:59:35.535Z,40.20
2022-12-11T11:00:35.591Z,45.00
2022-12-11T11:01:35.585Z,44.90
2022-12-11T11:02:35.655Z,40.40
2022-12-11T11:03:35.514Z,58.20
2022-12-11T11:04:35.494Z,47.00
2022-12-11T11:05:35.459Z,43.00
2022-12-11T11:06:35.489Z,47.20
2022-12-11T11:07:35.440Z,42.20
2022-12-11T11:08:35.562Z,46.60
2022-12-11T11:09:35.495Z,46.80
2022-12-11T11:10:35.410Z,45.60
2022-12-11T11:11:35.387Z,46.40
2022-12-11T11:12:35.394Z,51.50
2022-12-11T11:13:35.348Z,52.70
2022-12-11T11:14:35.401Z,47.30
2022-12-11T11:15:35.373Z,47.80
2022-12-11T11:16:35.343Z,45.30
2022-12-11T11:17:36.788Z,44.60
2022-12-11T11:18:35.310Z,41.10
2022-12-11T11:19:35.280Z,50.90
2022-12-11T11:20:35.312Z,45.30
2022-12-11T11:21:35.246Z,47.20
2022-12-11T11:22:35.262Z,46.60
2022-12-11T11:23:37.605Z,47.50
2022-12-11T11:24:35.238Z,47.20
2022-12-11T11:25:35.240Z,46.30
2022-12-11T11:27:11.058Z,45.20
2022-12-11T11:27:35.175Z,42.90
2022-12-11T11:28:35.195Z,57.70
2022-12-11T11:29:35.152Z,43.70
2022-12-11T11:30:35.165Z,41.30
2022-12-11T11:31:35.231Z,40.60
2022-12-11T11:32:35.140Z,39.20
2022-12-11T11:33:35.111Z,35.30
2022-12-11T11:34:35.120Z,41.60
2022-12-11T11:35:35.140Z,36.80
2022-12-11T11:36:35.152Z,38.10
2022-12-11T11:37:35.047Z,39.20
2022-12-11T11:38:35.071Z,42.30
2022-12-11T11:39:35.025Z,41.60
2022-12-11T11:40:35.056Z,39.20
2022-12-11T11:41:34.992Z,40.00
2022-12-11T11:42:35.067Z,44.40
2022-12-11T11:43:34.968Z,38.50
2022-12-11T11:44:34.989Z,39.90
2022-12-11T11:45:34.939Z,45.40
2022-12-11T11:46:35.018Z,41.50
2022-12-11T11:47:34.945Z,40.60
2022-12-11T11:48:34.925Z,40.90
2022-12-11T11:49:34.888Z,43.80
2022-12-11T11:50:34.902Z,43.70
2022-12-11T11:51:34.884Z,44.80
2022-12-11T11:52:34.878Z,41.00
2022-12-11T11:53:34.838Z,46.80
2022-12-11T11:54:34.868Z,42.50
2022-12-11T11:55:34.836Z,40.00
2022-12-11T11:56:34.850Z,42.30
2022-12-11T11:57:34.791Z,43.00
2022-12-11T11:58:34.801Z,44.90
2022-12-11T11:59:34.778Z,43.20
2022-12-11T12:00:34.772Z,47.30
2022-12-11T12:01:34.781Z,39.40
2022-12-11T12:02:34.840Z,35.20
2022-12-11T12:03:34.721Z,37.50
2022-12-11T12:04:34.719Z,43.80
2022-12-11T12:05:34.701Z,36.60
2022-12-11T12:06:34.696Z,43.70
2022-12-11T12:07:34.687Z,39.00
2022-12-11T12:08:34.693Z,44.80
2022-12-11T12:09:34.674Z,49.90
2022-12-11T12:10:34.648Z,42.20
2022-12-11T12:11:34.608Z,45.50
2022-12-11T12:12:34.689Z,44.00
2022-12-11T12:13:50.558Z,69.20
2022-12-11T12:15:34.559Z,44.60
2022-12-11T12:17:34.587Z,38.00
2022-12-11T12:18:34.536Z,40.10
2022-12-11T12:19:34.506Z,42.50
2022-12-11T12:20:34.521Z,41.80
2022-12-11T12:21:34.492Z,42.50
2022-12-11T12:22:34.495Z,46.90
2022-12-11T12:23:36.995Z,47.00
2022-12-11T12:24:34.461Z,44.40
2022-12-11T12:25:34.434Z,46.90
2022-12-11T12:26:34.436Z,43.20
2022-12-11T12:28:34.457Z,41.70
2022-12-11T12:29:34.379Z,45.90
2022-12-11T12:30:34.410Z,41.20
2022-12-11T12:31:34.373Z,38.90
2022-12-11T12:32:34.389Z,38.90
2022-12-11T12:33:34.359Z,44.40
2022-12-11T12:34:34.350Z,42.60
2022-12-11T12:35:34.310Z,44.40
2022-12-11T12:36:34.309Z,38.30
2022-12-11T12:37:34.293Z,43.20
2022-12-11T12:38:34.345Z,43.20
2022-12-11T12:39:34.244Z,53.70
2022-12-11T12:40:34.281Z,39.90
